sensor_id;sensor_type;location;lat;lon;timestamp;pressure;altitude;pressure_sealevel;temperature;humidity
53522;BME280;39398;48.382;9.802;2023-02-19T00:00:48;94297.19;;;9.29;94.77
53522;BME280;39398;48.382;9.802;2023-02-19T00:05:49;94291.03;;;9.60;92.88
53522;BME280;39398;48.382;9.802;2023-02-19T00:10:51;94295.78;;;9.41;93.69
53522;BME280;39398;48.382;9.802;2023-02-19T00:15:54;94287.41;;;9.61;92.66
53522;BME280;39398;48.382;9.802;2023-02-19T00:20:55;94276.50;;;9.41;93.40
53522;BME280;39398;48.382;9.802;2023-02-19T00:26:00;94264.91;;;9.50;93.13
53522;BME280;39398;48.382;9.802;2023-02-19T00:31:21;94262.69;;;9.39;94.16
53522;BME280;39398;48.382;9.802;2023-02-19T00:36:25;94267.31;;;9.37;94.87
53522;BME280;39398;48.382;9.802;2023-02-19T00:41:27;94259.38;;;9.45;94.24
53522;BME280;39398;48.382;9.802;2023-02-19T00:46:32;94255.47;;;9.55;93.20
53522;BME280;39398;48.382;9.802;2023-02-19T00:51:36;94248.13;;;9.51;93.11
53522;BME280;39398;48.382;9.802;2023-02-19T00:56:38;94260.66;;;9.49;94.16
53522;BME280;39398;48.382;9.802;2023-02-19T01:01:42;94250.66;;;9.59;93.30
53522;BME280;39398;48.382;9.802;2023-02-19T01:06:43;94250.44;;;9.46;93.88
53522;BME280;39398;48.382;9.802;2023-02-19T01:11:45;94244.59;;;9.36;94.62
53522;BME280;39398;48.382;9.802;2023-02-19T01:16:48;94246.53;;;9.42;94.43
53522;BME280;39398;48.382;9.802;2023-02-19T01:21:49;94234.00;;;9.44;94.41
53522;BME280;39398;48.382;9.802;2023-02-19T01:26:51;94236.97;;;9.41;94.29
53522;BME280;39398;48.382;9.802;2023-02-19T01:31:54;94238.03;;;9.31;94.78
53522;BME280;39398;48.382;9.802;2023-02-19T01:36:56;94234.19;;;9.42;94.69
53522;BME280;39398;48.382;9.802;2023-02-19T01:41:57;94226.06;;;9.29;95.72
53522;BME280;39398;48.382;9.802;2023-02-19T01:47:00;94214.31;;;9.31;95.20
53522;BME280;39398;48.382;9.802;2023-02-19T01:52:05;94219.47;;;9.02;97.31
53522;BME280;39398;48.382;9.802;2023-02-19T01:57:13;94206.91;;;9.35;95.83
53522;BME280;39398;48.382;9.802;2023-02-19T02:02:18;94208.31;;;9.23;96.26
53522;BME280;39398;48.382;9.802;2023-02-19T02:07:20;94200.97;;;9.33;96.04
53522;BME280;39398;48.382;9.802;2023-02-19T02:12:22;94202.56;;;9.19;96.93
53522;BME280;39398;48.382;9.802;2023-02-19T02:17:29;94200.91;;;9.18;97.20
53522;BME280;39398;48.382;9.802;2023-02-19T02:22:37;94162.94;;;8.90;98.40
53522;BME280;39398;48.382;9.802;2023-02-19T02:27:47;94173.59;;;9.19;97.22
53522;BME280;39398;48.382;9.802;2023-02-19T02:32:55;94169.91;;;8.82;100.00
53522;BME280;39398;48.382;9.802;2023-02-19T02:38:01;94178.16;;;9.02;99.51
53522;BME280;39398;48.382;9.802;2023-02-19T02:43:03;94185.25;;;9.02;100.00
53522;BME280;39398;48.382;9.802;2023-02-19T02:48:17;94173.19;;;9.07;99.99
53522;BME280;39398;48.382;9.802;2023-02-19T02:53:26;94172.84;;;9.11;99.45
53522;BME280;39398;48.382;9.802;2023-02-19T02:58:31;94162.97;;;9.13;99.32
53522;BME280;39398;48.382;9.802;2023-02-19T03:03:36;94154.53;;;8.94;99.52
53522;BME280;39398;48.382;9.802;2023-02-19T03:08:44;94164.63;;;9.05;99.58
53522;BME280;39398;48.382;9.802;2023-02-19T03:13:49;94158.09;;;9.01;99.13
53522;BME280;39398;48.382;9.802;2023-02-19T03:18:57;94149.94;;;9.11;98.69
53522;BME280;39398;48.382;9.802;2023-02-19T03:24:00;94140.91;;;8.91;99.88
53522;BME280;39398;48.382;9.802;2023-02-19T03:29:03;94140.00;;;8.75;100.00
53522;BME280;39398;48.382;9.802;2023-02-19T03:34:10;94122.06;;;8.79;99.83
53522;BME280;39398;48.382;9.802;2023-02-19T03:39:14;94123.34;;;8.83;99.99
53522;BME280;39398;48.382;9.802;2023-02-19T03:44:23;94133.03;;;8.82;99.27
53522;BME280;39398;48.382;9.802;2023-02-19T03:49:28;94133.84;;;9.06;97.74
53522;BME280;39398;48.382;9.802;2023-02-19T03:54:37;94133.97;;;8.90;98.11
53522;BME280;39398;48.382;9.802;2023-02-19T03:59:48;94132.41;;;9.03;97.14
53522;BME280;39398;48.382;9.802;2023-02-19T04:04:59;94133.50;;;8.63;99.40
53522;BME280;39398;48.382;9.802;2023-02-19T04:10:05;94140.34;;;8.95;98.26
53522;BME280;39398;48.382;9.802;2023-02-19T04:15:11;94150.06;;;8.95;97.11
53522;BME280;39398;48.382;9.802;2023-02-19T04:20:17;94148.50;;;8.85;97.24
53522;BME280;39398;48.382;9.802;2023-02-19T04:25:21;94152.94;;;9.08;94.77
53522;BME280;39398;48.382;9.802;2023-02-19T04:30:23;94155.25;;;9.03;95.26
53522;BME280;39398;48.382;9.802;2023-02-19T04:35:26;94153.19;;;8.98;95.28
53522;BME280;39398;48.382;9.802;2023-02-19T04:40:28;94165.66;;;8.81;96.48
53522;BME280;39398;48.382;9.802;2023-02-19T04:45:30;94173.56;;;8.73;97.71
53522;BME280;39398;48.382;9.802;2023-02-19T04:50:32;94173.16;;;8.22;100.00
53522;BME280;39398;48.382;9.802;2023-02-19T04:55:36;94174.97;;;8.61;100.00
53522;BME280;39398;48.382;9.802;2023-02-19T05:00:42;94186.97;;;8.24;100.00
53522;BME280;39398;48.382;9.802;2023-02-19T05:05:45;94178.47;;;8.14;100.00
53522;BME280;39398;48.382;9.802;2023-02-19T05:10:46;94181.88;;;8.62;100.00
53522;BME280;39398;48.382;9.802;2023-02-19T05:15:55;94181.50;;;8.26;100.00
53522;BME280;39398;48.382;9.802;2023-02-19T05:20:59;94193.06;;;8.16;100.00
53522;BME280;39398;48.382;9.802;2023-02-19T05:26:04;94201.72;;;7.86;100.00
53522;BME280;39398;48.382;9.802;2023-02-19T05:31:07;94199.44;;;8.22;100.00
53522;BME280;39398;48.382;9.802;2023-02-19T05:36:12;94208.00;;;8.24;100.00
53522;BME280;39398;48.382;9.802;2023-02-19T05:41:15;94204.09;;;8.04;100.00
53522;BME280;39398;48.382;9.802;2023-02-19T05:46:19;94202.13;;;8.06;100.00
53522;BME280;39398;48.382;9.802;2023-02-19T05:51:24;94219.09;;;7.87;100.00
53522;BME280;39398;48.382;9.802;2023-02-19T05:56:30;94222.22;;;7.90;100.00
53522;BME280;39398;48.382;9.802;2023-02-19T06:01:33;94230.72;;;8.01;100.00
53522;BME280;39398;48.382;9.802;2023-02-19T06:06:37;94234.59;;;8.29;100.00
53522;BME280;39398;48.382;9.802;2023-02-19T06:11:39;94246.97;;;8.21;100.00
53522;BME280;39398;48.382;9.802;2023-02-19T06:16:41;94245.91;;;7.74;100.00
53522;BME280;39398;48.382;9.802;2023-02-19T06:21:44;94245.47;;;8.26;100.00
53522;BME280;39398;48.382;9.802;2023-02-19T06:26:45;94258.50;;;8.03;100.00
53522;BME280;39398;48.382;9.802;2023-02-19T06:31:47;94269.38;;;7.84;100.00
53522;BME280;39398;48.382;9.802;2023-02-19T06:36:50;94278.25;;;7.99;100.00
53522;BME280;39398;48.382;9.802;2023-02-19T06:41:53;94291.56;;;7.81;100.00
53522;BME280;39398;48.382;9.802;2023-02-19T06:46:55;94300.44;;;7.56;100.00
53522;BME280;39398;48.382;9.802;2023-02-19T06:51:58;94303.22;;;7.87;100.00
53522;BME280;39398;48.382;9.802;2023-02-19T06:57:00;94314.72;;;8.10;100.00
53522;BME280;39398;48.382;9.802;2023-02-19T07:02:01;94322.94;;;8.07;100.00
53522;BME280;39398;48.382;9.802;2023-02-19T07:07:04;94334.25;;;8.00;100.00
53522;BME280;39398;48.382;9.802;2023-02-19T07:12:06;94342.50;;;8.05;100.00
53522;BME280;39398;48.382;9.802;2023-02-19T07:17:08;94359.75;;;8.07;100.00
53522;BME280;39398;48.382;9.802;2023-02-19T07:22:10;94362.31;;;7.42;100.00
53522;BME280;39398;48.382;9.802;2023-02-19T07:27:12;94360.53;;;8.32;100.00
53522;BME280;39398;48.382;9.802;2023-02-19T07:32:13;94363.19;;;7.75;100.00
53522;BME280;39398;48.382;9.802;2023-02-19T07:37:16;94368.78;;;7.88;100.00
53522;BME280;39398;48.382;9.802;2023-02-19T07:42:18;94379.94;;;7.90;100.00
53522;BME280;39398;48.382;9.802;2023-02-19T07:47:19;94390.28;;;7.67;100.00
53522;BME280;39398;48.382;9.802;2023-02-19T07:52:22;94415.47;;;7.28;100.00
53522;BME280;39398;48.382;9.802;2023-02-19T07:57:26;94422.94;;;7.06;100.00
53522;BME280;39398;48.382;9.802;2023-02-19T08:02:28;94425.22;;;7.01;100.00
53522;BME280;39398;48.382;9.802;2023-02-19T08:07:31;94426.88;;;7.02;100.00
53522;BME280;39398;48.382;9.802;2023-02-19T08:12:33;94420.66;;;7.11;100.00
53522;BME280;39398;48.382;9.802;2023-02-19T08:17:34;94431.13;;;7.37;100.00
53522;BME280;39398;48.382;9.802;2023-02-19T08:22:37;94427.72;;;7.11;100.00
53522;BME280;39398;48.382;9.802;2023-02-19T08:27:39;94436.94;;;7.23;100.00
53522;BME280;39398;48.382;9.802;2023-02-19T08:32:40;94426.75;;;7.20;100.00
53522;BME280;39398;48.382;9.802;2023-02-19T08:37:43;94431.75;;;7.39;100.00
53522;BME280;39398;48.382;9.802;2023-02-19T08:42:45;94427.00;;;7.35;100.00
53522;BME280;39398;48.382;9.802;2023-02-19T08:47:46;94436.72;;;7.59;100.00
53522;BME280;39398;48.382;9.802;2023-02-19T08:52:49;94447.41;;;7.65;100.00
53522;BME280;39398;48.382;9.802;2023-02-19T08:57:51;94460.41;;;7.75;100.00
53522;BME280;39398;48.382;9.802;2023-02-19T09:02:52;94464.22;;;7.73;100.00
53522;BME280;39398;48.382;9.802;2023-02-19T09:07:55;94464.53;;;7.69;100.00
53522;BME280;39398;48.382;9.802;2023-02-19T09:12:57;94466.72;;;7.40;100.00
53522;BME280;39398;48.382;9.802;2023-02-19T09:17:59;94455.69;;;7.87;100.00
53522;BME280;39398;48.382;9.802;2023-02-19T09:23:01;94454.03;;;7.78;100.00
53522;BME280;39398;48.382;9.802;2023-02-19T09:28:03;94463.38;;;7.72;100.00
53522;BME280;39398;48.382;9.802;2023-02-19T09:33:05;94479.84;;;7.40;100.00
53522;BME280;39398;48.382;9.802;2023-02-19T09:38:08;94483.84;;;7.52;100.00
53522;BME280;39398;48.382;9.802;2023-02-19T09:43:14;94490.22;;;7.41;100.00
53522;BME280;39398;48.382;9.802;2023-02-19T09:48:17;94497.34;;;7.65;100.00
53522;BME280;39398;48.382;9.802;2023-02-19T09:53:21;94496.06;;;7.69;100.00
53522;BME280;39398;48.382;9.802;2023-02-19T09:58:28;94502.28;;;7.60;100.00
53522;BME280;39398;48.382;9.802;2023-02-19T10:03:32;94496.91;;;7.78;100.00
53522;BME280;39398;48.382;9.802;2023-02-19T10:08:38;94499.94;;;8.08;100.00
53522;BME280;39398;48.382;9.802;2023-02-19T10:13:41;94501.41;;;8.02;100.00
53522;BME280;39398;48.382;9.802;2023-02-19T10:18:44;94501.75;;;8.32;100.00
53522;BME280;39398;48.382;9.802;2023-02-19T10:23:50;94507.94;;;7.90;100.00
53522;BME280;39398;48.382;9.802;2023-02-19T10:28:53;94516.97;;;7.87;100.00
53522;BME280;39398;48.382;9.802;2023-02-19T10:33:57;94524.19;;;7.43;100.00
53522;BME280;39398;48.382;9.802;2023-02-19T10:39:02;94523.91;;;7.20;100.00
53522;BME280;39398;48.382;9.802;2023-02-19T10:44:13;94534.91;;;7.50;100.00
53522;BME280;39398;48.382;9.802;2023-02-19T10:49:22;94528.06;;;7.65;100.00
53522;BME280;39398;48.382;9.802;2023-02-19T10:54:28;94506.72;;;7.68;100.00
53522;BME280;39398;48.382;9.802;2023-02-19T10:59:30;94515.28;;;7.78;100.00
53522;BME280;39398;48.382;9.802;2023-02-19T11:04:32;94523.63;;;7.57;100.00
53522;BME280;39398;48.382;9.802;2023-02-19T11:09:37;94533.75;;;7.52;100.00
53522;BME280;39398;48.382;9.802;2023-02-19T11:14:41;94540.47;;;7.89;100.00
53522;BME280;39398;48.382;9.802;2023-02-19T11:19:43;94535.63;;;7.60;100.00
53522;BME280;39398;48.382;9.802;2023-02-19T11:24:49;94537.56;;;7.23;100.00
53522;BME280;39398;48.382;9.802;2023-02-19T11:35:38;94544.41;;;6.64;100.00
53522;BME280;39398;48.382;9.802;2023-02-19T11:40:44;94534.69;;;6.83;100.00
53522;BME280;39398;48.382;9.802;2023-02-19T11:45:56;94543.50;;;6.99;100.00
53522;BME280;39398;48.382;9.802;2023-02-19T11:51:14;94536.06;;;7.55;100.00
53522;BME280;39398;48.382;9.802;2023-02-19T11:56:25;94525.97;;;7.77;100.00
53522;BME280;39398;48.382;9.802;2023-02-19T12:01:52;94536.63;;;7.67;100.00
53522;BME280;39398;48.382;9.802;2023-02-19T12:07:05;94537.81;;;7.73;100.00
53522;BME280;39398;48.382;9.802;2023-02-19T12:12:32;94546.75;;;7.54;100.00
53522;BME280;39398;48.382;9.802;2023-02-19T12:17:58;94556.00;;;7.66;100.00
53522;BME280;39398;48.382;9.802;2023-02-19T12:23:32;94558.75;;;7.99;100.00
53522;BME280;39398;48.382;9.802;2023-02-19T12:28:56;94569.84;;;7.76;100.00
53522;BME280;39398;48.382;9.802;2023-02-19T12:39:39;94564.72;;;7.66;100.00
53522;BME280;39398;48.382;9.802;2023-02-19T12:44:49;94553.75;;;7.87;100.00
53522;BME280;39398;48.382;9.802;2023-02-19T12:49:56;94541.22;;;8.32;97.87
53522;BME280;39398;48.382;9.802;2023-02-19T12:55:11;94545.34;;;8.34;100.00
53522;BME280;39398;48.382;9.802;2023-02-19T13:00:30;94535.47;;;8.28;97.71
53522;BME280;39398;48.382;9.802;2023-02-19T13:05:41;94531.06;;;8.53;100.00
53522;BME280;39398;48.382;9.802;2023-02-19T13:10:47;94526.47;;;8.64;98.83
53522;BME280;39398;48.382;9.802;2023-02-19T13:15:55;94525.31;;;8.66;94.74
53522;BME280;39398;48.382;9.802;2023-02-19T13:20:59;94508.03;;;8.80;89.55
53522;BME280;39398;48.382;9.802;2023-02-19T13:26:12;94509.00;;;8.95;88.62
53522;BME280;39398;48.382;9.802;2023-02-19T13:31:29;94505.19;;;9.22;89.52
53522;BME280;39398;48.382;9.802;2023-02-19T13:36:34;94514.75;;;9.63;87.10
53522;BME280;39398;48.382;9.802;2023-02-19T13:41:38;94524.47;;;8.90;88.49
53522;BME280;39398;48.382;9.802;2023-02-19T13:46:44;94516.25;;;9.01;93.07
53522;BME280;39398;48.382;9.802;2023-02-19T13:51:47;94521.72;;;8.59;89.04
53522;BME280;39398;48.382;9.802;2023-02-19T13:57:25;94538.47;;;8.58;89.17
53522;BME280;39398;48.382;9.802;2023-02-19T14:02:31;94531.31;;;8.01;90.76
53522;BME280;39398;48.382;9.802;2023-02-19T14:13:01;94512.09;;;8.25;90.43
53522;BME280;39398;48.382;9.802;2023-02-19T14:18:42;94513.09;;;8.32;91.81
53522;BME280;39398;48.382;9.802;2023-02-19T14:23:44;94503.28;;;8.51;85.71
53522;BME280;39398;48.382;9.802;2023-02-19T14:28:51;94497.00;;;8.76;85.53
53522;BME280;39398;48.382;9.802;2023-02-19T14:33:57;94516.53;;;9.15;88.37
53522;BME280;39398;48.382;9.802;2023-02-19T14:39:01;94519.22;;;8.57;84.05
53522;BME280;39398;48.382;9.802;2023-02-19T14:44:05;94511.81;;;8.77;85.73
53522;BME280;39398;48.382;9.802;2023-02-19T14:49:17;94502.25;;;9.01;85.39
53522;BME280;39398;48.382;9.802;2023-02-19T14:54:34;94525.50;;;8.81;84.58
53522;BME280;39398;48.382;9.802;2023-02-19T14:59:36;94526.44;;;8.31;85.40
53522;BME280;39398;48.382;9.802;2023-02-19T15:04:39;94534.19;;;8.41;87.68
53522;BME280;39398;48.382;9.802;2023-02-19T15:09:42;94530.41;;;8.68;85.16
53522;BME280;39398;48.382;9.802;2023-02-19T15:14:45;94535.34;;;8.46;85.92
53522;BME280;39398;48.382;9.802;2023-02-19T15:19:49;94541.06;;;8.33;91.22
53522;BME280;39398;48.382;9.802;2023-02-19T15:24:50;94554.28;;;8.66;89.07
53522;BME280;39398;48.382;9.802;2023-02-19T15:29:52;94564.16;;;8.56;90.36
53522;BME280;39398;48.382;9.802;2023-02-19T15:34:57;94573.25;;;8.11;91.90
53522;BME280;39398;48.382;9.802;2023-02-19T15:40:00;94583.50;;;7.88;98.91
53522;BME280;39398;48.382;9.802;2023-02-19T15:45:10;94606.84;;;7.91;100.00
53522;BME280;39398;48.382;9.802;2023-02-19T15:50:21;94617.13;;;7.42;100.00
53522;BME280;39398;48.382;9.802;2023-02-19T15:55:30;94606.41;;;7.09;100.00
53522;BME280;39398;48.382;9.802;2023-02-19T16:00:37;94591.19;;;7.13;100.00
53522;BME280;39398;48.382;9.802;2023-02-19T16:05:43;94591.84;;;7.41;100.00
53522;BME280;39398;48.382;9.802;2023-02-19T16:10:52;94593.69;;;7.22;100.00
53522;BME280;39398;48.382;9.802;2023-02-19T16:15:58;94598.38;;;7.37;100.00
53522;BME280;39398;48.382;9.802;2023-02-19T16:21:06;94617.34;;;7.22;100.00
53522;BME280;39398;48.382;9.802;2023-02-19T16:26:09;94613.38;;;7.18;100.00
53522;BME280;39398;48.382;9.802;2023-02-19T16:31:12;94606.09;;;7.38;100.00
53522;BME280;39398;48.382;9.802;2023-02-19T16:36:20;94614.03;;;7.20;100.00
53522;BME280;39398;48.382;9.802;2023-02-19T16:41:22;94618.00;;;7.51;100.00
53522;BME280;39398;48.382;9.802;2023-02-19T16:46:24;94611.59;;;7.27;100.00
53522;BME280;39398;48.382;9.802;2023-02-19T16:51:27;94620.69;;;7.33;100.00
53522;BME280;39398;48.382;9.802;2023-02-19T16:56:29;94638.19;;;6.80;100.00
53522;BME280;39398;48.382;9.802;2023-02-19T17:01:30;94629.41;;;6.89;100.00
53522;BME280;39398;48.382;9.802;2023-02-19T17:06:35;94613.47;;;7.09;100.00
53522;BME280;39398;48.382;9.802;2023-02-19T17:11:37;94624.59;;;6.85;100.00
53522;BME280;39398;48.382;9.802;2023-02-19T17:16:38;94625.78;;;7.34;100.00
53522;BME280;39398;48.382;9.802;2023-02-19T17:21:42;94637.31;;;6.97;100.00
53522;BME280;39398;48.382;9.802;2023-02-19T17:26:44;94639.34;;;7.04;100.00
53522;BME280;39398;48.382;9.802;2023-02-19T17:31:46;94650.91;;;6.93;100.00
53522;BME280;39398;48.382;9.802;2023-02-19T17:36:49;94661.03;;;7.06;100.00
53522;BME280;39398;48.382;9.802;2023-02-19T17:41:51;94662.22;;;7.11;100.00
53522;BME280;39398;48.382;9.802;2023-02-19T17:46:52;94665.47;;;7.05;100.00
53522;BME280;39398;48.382;9.802;2023-02-19T17:51:55;94677.53;;;7.16;100.00
53522;BME280;39398;48.382;9.802;2023-02-19T17:56:57;94691.78;;;6.78;100.00
53522;BME280;39398;48.382;9.802;2023-02-19T18:01:58;94696.31;;;6.40;100.00
53522;BME280;39398;48.382;9.802;2023-02-19T18:07:01;94718.47;;;6.73;100.00
53522;BME280;39398;48.382;9.802;2023-02-19T18:12:03;94718.50;;;6.45;100.00
53522;BME280;39398;48.382;9.802;2023-02-19T18:17:05;94715.53;;;6.76;100.00
53522;BME280;39398;48.382;9.802;2023-02-19T18:22:08;94723.34;;;7.04;100.00
53522;BME280;39398;48.382;9.802;2023-02-19T18:27:09;94724.69;;;6.72;100.00
53522;BME280;39398;48.382;9.802;2023-02-19T18:32:11;94720.94;;;6.74;100.00
53522;BME280;39398;48.382;9.802;2023-02-19T18:37:14;94736.81;;;6.73;100.00
53522;BME280;39398;48.382;9.802;2023-02-19T18:42:16;94756.97;;;6.55;100.00
53522;BME280;39398;48.382;9.802;2023-02-19T18:47:19;94752.44;;;6.74;100.00
53522;BME280;39398;48.382;9.802;2023-02-19T18:52:23;94739.56;;;6.53;100.00
53522;BME280;39398;48.382;9.802;2023-02-19T18:57:25;94754.38;;;6.72;100.00
53522;BME280;39398;48.382;9.802;2023-02-19T19:02:27;94746.13;;;6.67;100.00
53522;BME280;39398;48.382;9.802;2023-02-19T19:07:44;94760.03;;;6.50;100.00
53522;BME280;39398;48.382;9.802;2023-02-19T19:12:46;94759.78;;;6.89;100.00
53522;BME280;39398;48.382;9.802;2023-02-19T19:17:48;94763.75;;;6.47;100.00
53522;BME280;39398;48.382;9.802;2023-02-19T19:22:51;94763.38;;;6.70;100.00
53522;BME280;39398;48.382;9.802;2023-02-19T19:27:54;94766.03;;;6.60;100.00
53522;BME280;39398;48.382;9.802;2023-02-19T19:32:55;94757.09;;;6.81;100.00
53522;BME280;39398;48.382;9.802;2023-02-19T19:37:59;94759.56;;;6.82;100.00
53522;BME280;39398;48.382;9.802;2023-02-19T19:43:01;94767.00;;;6.87;100.00
53522;BME280;39398;48.382;9.802;2023-02-19T19:48:03;94771.72;;;7.01;100.00
53522;BME280;39398;48.382;9.802;2023-02-19T19:53:06;94775.81;;;7.31;99.96
53522;BME280;39398;48.382;9.802;2023-02-19T19:58:08;94783.97;;;7.46;100.00
53522;BME280;39398;48.382;9.802;2023-02-19T20:03:09;94780.25;;;7.31;100.00
53522;BME280;39398;48.382;9.802;2023-02-19T20:08:12;94776.84;;;7.03;100.00
53522;BME280;39398;48.382;9.802;2023-02-19T20:13:15;94780.06;;;7.32;100.00
53522;BME280;39398;48.382;9.802;2023-02-19T20:18:16;94786.63;;;6.83;100.00
53522;BME280;39398;48.382;9.802;2023-02-19T20:23:19;94788.38;;;6.92;100.00
53522;BME280;39398;48.382;9.802;2023-02-19T20:28:21;94782.66;;;6.79;100.00
53522;BME280;39398;48.382;9.802;2023-02-19T20:33:23;94782.75;;;6.87;100.00
53522;BME280;39398;48.382;9.802;2023-02-19T20:38:26;94771.22;;;7.15;100.00
53522;BME280;39398;48.382;9.802;2023-02-19T20:43:27;94748.69;;;6.95;100.00
53522;BME280;39398;48.382;9.802;2023-02-19T20:48:29;94752.16;;;6.95;100.00
53522;BME280;39398;48.382;9.802;2023-02-19T20:53:32;94757.41;;;6.78;100.00
53522;BME280;39398;48.382;9.802;2023-02-19T20:58:33;94767.59;;;6.81;100.00
53522;BME280;39398;48.382;9.802;2023-02-19T21:03:35;94781.16;;;6.48;100.00
53522;BME280;39398;48.382;9.802;2023-02-19T21:08:38;94790.41;;;6.80;100.00
53522;BME280;39398;48.382;9.802;2023-02-19T21:13:41;94792.69;;;6.65;100.00
53522;BME280;39398;48.382;9.802;2023-02-19T21:18:42;94777.50;;;6.87;100.00
53522;BME280;39398;48.382;9.802;2023-02-19T21:23:45;94776.81;;;6.57;100.00
53522;BME280;39398;48.382;9.802;2023-02-19T21:28:49;94787.38;;;6.47;100.00
53522;BME280;39398;48.382;9.802;2023-02-19T21:33:51;94770.91;;;6.55;100.00
53522;BME280;39398;48.382;9.802;2023-02-19T21:38:54;94788.84;;;6.60;100.00
53522;BME280;39398;48.382;9.802;2023-02-19T21:43:56;94799.25;;;6.51;100.00
53522;BME280;39398;48.382;9.802;2023-02-19T21:48:58;94796.16;;;6.84;100.00
53522;BME280;39398;48.382;9.802;2023-02-19T21:54:01;94790.16;;;6.73;100.00
53522;BME280;39398;48.382;9.802;2023-02-19T21:59:02;94789.81;;;6.59;100.00
53522;BME280;39398;48.382;9.802;2023-02-19T22:04:05;94789.94;;;6.57;100.00
53522;BME280;39398;48.382;9.802;2023-02-19T22:09:09;94783.28;;;6.63;100.00
53522;BME280;39398;48.382;9.802;2023-02-19T22:14:11;94776.53;;;6.60;100.00
53522;BME280;39398;48.382;9.802;2023-02-19T22:19:12;94775.19;;;6.56;100.00
53522;BME280;39398;48.382;9.802;2023-02-19T22:24:17;94776.81;;;6.57;100.00
53522;BME280;39398;48.382;9.802;2023-02-19T22:29:19;94783.50;;;6.51;100.00
53522;BME280;39398;48.382;9.802;2023-02-19T22:34:21;94795.13;;;6.77;100.00
53522;BME280;39398;48.382;9.802;2023-02-19T22:39:25;94786.34;;;6.31;100.00
53522;BME280;39398;48.382;9.802;2023-02-19T22:44:26;94799.72;;;6.65;100.00
53522;BME280;39398;48.382;9.802;2023-02-19T22:49:28;94804.63;;;6.78;100.00
53522;BME280;39398;48.382;9.802;2023-02-19T22:54:31;94807.66;;;7.01;100.00
53522;BME280;39398;48.382;9.802;2023-02-19T22:59:32;94795.44;;;6.91;100.00
53522;BME280;39398;48.382;9.802;2023-02-19T23:04:34;94803.69;;;6.96;100.00
53522;BME280;39398;48.382;9.802;2023-02-19T23:09:37;94808.56;;;6.91;100.00
53522;BME280;39398;48.382;9.802;2023-02-19T23:14:38;94818.03;;;7.02;100.00
53522;BME280;39398;48.382;9.802;2023-02-19T23:19:40;94820.38;;;7.05;100.00
53522;BME280;39398;48.382;9.802;2023-02-19T23:24:43;94822.00;;;7.24;100.00
53522;BME280;39398;48.382;9.802;2023-02-19T23:29:45;94826.56;;;6.86;100.00
53522;BME280;39398;48.382;9.802;2023-02-19T23:34:46;94824.75;;;7.05;100.00
53522;BME280;39398;48.382;9.802;2023-02-19T23:39:49;94830.19;;;7.03;100.00
53522;BME280;39398;48.382;9.802;2023-02-19T23:44:51;94817.75;;;7.05;100.00
53522;BME280;39398;48.382;9.802;2023-02-19T23:49:52;94816.81;;;7.14;100.00
53522;BME280;39398;48.382;9.802;2023-02-19T23:54:55;94816.16;;;6.67;100.00
53522;BME280;39398;48.382;9.802;2023-02-19T23:59:57;94814.38;;;6.85;100.00
